Time;durP1;ratioP1;P1;durP2;ratioP2;P2;SDS_P1;SDS_P2;PMS_P1;PMS_P2;Temp;Humidity;BMP_temperature;BMP_pressure;BME280_temperature;BME280_humidity;BME280_pressure;Samples;Min_cycle;Max_cycle;Signal;HPM_P1;HPM_P2
2022/08/16 00:02:00;;;;;;;28.27;22.13;;;20.60;99.90;;;;;;5012588;28;20107;-73
2022/08/16 00:04:26;;;;;;;25.98;21.58;;;20.60;99.90;;;;;;5012669;28;20485;-73
2022/08/16 00:06:51;;;;;;;31.33;21.55;;;20.60;99.90;;;;;;5012909;28;20018;-73
2022/08/16 00:09:17;;;;;;;29.00;22.40;;;20.60;99.90;;;;;;5012436;28;20030;-73
2022/08/16 00:11:45;;;;;;;27.02;22.15;;;20.60;99.90;;;;;;5012634;28;20101;-73
2022/08/16 00:14:16;;;;;;;25.23;20.67;;;20.70;99.90;;;;;;5012377;28;20482;-73
2022/08/16 00:16:42;;;;;;;25.27;19.83;;;20.50;99.90;;;;;;5012509;28;20040;-73
2022/08/16 00:19:07;;;;;;;25.08;21.88;;;20.60;99.90;;;;;;5012536;28;20121;-73
2022/08/16 00:21:33;;;;;;;25.15;21.08;;;20.60;99.90;;;;;;5012482;28;20034;-73
2022/08/16 00:23:59;;;;;;;24.63;21.13;;;20.50;99.90;;;;;;5012035;28;20690;-73
2022/08/16 00:26:25;;;;;;;27.48;20.55;;;20.50;99.90;;;;;;5012408;28;20026;-73
2022/08/16 00:28:50;;;;;;;24.35;20.42;;;20.50;99.90;;;;;;5012478;28;20026;-74
2022/08/16 00:31:16;;;;;;;26.92;21.42;;;20.50;99.90;;;;;;5012351;28;20151;-74
2022/08/16 00:33:42;;;;;;;25.15;20.40;;;20.50;99.90;;;;;;5051226;23;20053;-80
2022/08/16 00:36:08;;;;;;;25.55;20.65;;;20.50;99.90;;;;;;5050219;28;20010;-80
2022/08/16 00:38:33;;;;;;;24.30;20.15;;;20.50;99.90;;;;;;5045696;28;20013;-80
2022/08/16 00:41:00;;;;;;;25.30;19.95;;;20.70;99.90;;;;;;5046378;28;20094;-80
2022/08/16 00:43:33;;;;;;;24.42;20.48;;;20.50;99.90;;;;;;5032129;28;20026;-80
2022/08/16 00:46:29;;;;;;;22.95;19.15;;;20.50;99.90;;;;;;5032618;28;20021;-80
2022/08/16 00:48:55;;;;;;;23.33;18.90;;;20.50;99.90;;;;;;5048772;28;20096;-80
2022/08/16 00:51:22;;;;;;;24.80;19.67;;;20.50;99.90;;;;;;5043061;28;20056;-80
2022/08/16 00:53:49;;;;;;;21.85;18.20;;;20.40;99.90;;;;;;5049186;28;20038;-80
2022/08/16 00:56:20;;;;;;;22.50;19.23;;;20.40;99.90;;;;;;5043731;28;20061;-79
2022/08/16 00:58:47;;;;;;;21.52;19.02;;;20.40;99.90;;;;;;5046853;28;20026;-80
2022/08/16 01:01:15;;;;;;;26.67;19.90;;;20.40;99.90;;;;;;5044159;28;20039;-80
2022/08/16 01:03:44;;;;;;;23.95;20.15;;;20.40;99.90;;;;;;5049636;28;20086;-80
2022/08/16 01:06:11;;;;;;;23.52;19.83;;;20.40;99.90;;;;;;5047541;28;20032;-80
2022/08/16 01:08:39;;;;;;;27.55;19.80;;;20.30;99.90;;;;;;5046920;28;20028;-80
2022/08/16 01:11:06;;;;;;;23.50;19.52;;;20.30;99.90;;;;;;5056792;28;20093;-80
2022/08/16 01:13:34;;;;;;;23.80;19.83;;;20.30;99.90;;;;;;5048724;28;20018;-79
2022/08/16 01:16:05;;;;;;;28.15;20.83;;;20.20;99.90;;;;;;5046818;28;20037;-80
2022/08/16 01:18:34;;;;;;;25.25;21.15;;;20.20;99.90;;;;;;5057855;28;20021;-80
2022/08/16 01:21:48;;;;;;;28.15;21.27;;;20.20;99.90;;;;;;5056703;28;20026;-80
2022/08/16 01:24:27;;;;;;;24.17;21.17;;;20.10;99.90;;;;;;5020689;28;20061;-79
2022/08/16 01:27:01;;;;;;;26.27;20.88;;;20.10;99.90;;;;;;5050082;28;20020;-80
2022/08/16 01:29:35;;;;;;;29.38;20.90;;;20.10;99.90;;;;;;5041088;28;20105;-80
2022/08/16 01:32:01;;;;;;;27.35;20.85;;;20.10;99.90;;;;;;5048188;28;20046;-80
2022/08/16 01:34:27;;;;;;;26.83;20.20;;;20.00;99.90;;;;;;5045984;28;20026;-80
2022/08/16 01:37:06;;;;;;;28.13;20.70;;;20.10;99.90;;;;;;5046738;28;20033;-80
2022/08/16 01:39:32;;;;;;;26.15;22.35;;;19.90;99.90;;;;;;5048632;28;20021;-80
2022/08/16 01:41:59;;;;;;;28.60;21.77;;;19.70;99.90;;;;;;5050371;28;20040;-81
2022/08/16 01:44:25;;;;;;;26.45;20.65;;;19.60;99.90;;;;;;5049409;28;20535;-80
2022/08/16 01:46:52;;;;;;;26.42;21.98;;;19.60;1.00;;;;;;5053110;28;20029;-80
2022/08/16 01:49:31;;;;;;;27.75;22.17;;;19.50;1.00;;;;;;5055149;28;20021;-80
2022/08/16 01:52:00;;;;;;;27.05;22.70;;;19.40;1.00;;;;;;5040103;28;20353;-79
2022/08/16 01:54:26;;;;;;;31.47;24.07;;;19.30;1.00;;;;;;5035681;28;20555;-80
2022/08/16 01:56:52;;;;;;;27.65;23.08;;;19.30;1.00;;;;;;5052341;28;20274;-80
2022/08/16 01:59:18;;;;;;;29.42;23.48;;;19.20;1.00;;;;;;5048009;28;20105;-81
2022/08/16 02:01:49;;;;;;;30.48;24.30;;;19.00;1.00;;;;;;5048343;28;20040;-80
2022/08/16 02:04:15;;;;;;;31.00;23.85;;;18.90;1.00;;;;;;5054193;28;20079;-79
2022/08/16 02:06:41;;;;;;;30.35;23.67;;;18.90;1.00;;;;;;5051185;28;20021;-80
2022/08/16 02:09:09;;;;;;;32.30;25.65;;;18.80;1.00;;;;;;5050398;28;20073;-80
2022/08/16 02:11:37;;;;;;;29.27;24.00;;;18.70;1.00;;;;;;5051407;28;20085;-80
2022/08/16 02:14:05;;;;;;;30.13;23.10;;;18.70;1.00;;;;;;5048481;28;20025;-80
2022/08/16 02:16:31;;;;;;;29.15;24.20;;;18.60;1.00;;;;;;5050210;28;20075;-80
2022/08/16 02:18:58;;;;;;;31.13;24.63;;;18.50;1.00;;;;;;5054525;28;20020;-80
2022/08/16 02:21:23;;;;;;;30.25;24.50;;;18.40;1.00;;;;;;5053691;28;20013;-80
2022/08/16 02:23:49;;;;;;;31.15;25.33;;;18.40;1.00;;;;;;5055087;28;20026;-79
2022/08/16 02:26:15;;;;;;;31.48;24.83;;;18.30;1.00;;;;;;5055301;28;20052;-80
2022/08/16 02:28:42;;;;;;;33.70;25.17;;;18.30;1.00;;;;;;5052998;28;20052;-80
2022/08/16 02:31:10;;;;;;;32.25;25.17;;;18.20;1.00;;;;;;5051824;28;20032;-81
2022/08/16 02:33:36;;;;;;;32.25;24.88;;;18.20;1.00;;;;;;5052438;28;20041;-81
2022/08/16 02:36:04;;;;;;;22.90;19.67;;;18.10;1.00;;;;;;5050062;28;20033;-81
2022/08/16 02:38:31;;;;;;;29.23;22.38;;;18.00;99.90;;;;;;5048596;28;20499;-81
2022/08/16 02:40:59;;;;;;;30.38;22.88;;;18.00;1.00;;;;;;5048692;28;20022;-80
2022/08/16 02:43:28;;;;;;;30.63;23.77;;;17.90;99.90;;;;;;5048394;28;20022;-80
2022/08/16 02:45:55;;;;;;;31.42;24.73;;;17.90;1.00;;;;;;5050022;28;20069;-80
2022/08/16 02:48:21;;;;;;;31.25;25.17;;;17.80;1.00;;;;;;5052256;28;20034;-80
2022/08/16 02:50:47;;;;;;;32.70;24.73;;;17.70;99.90;;;;;;5054945;28;20022;-80
2022/08/16 02:53:12;;;;;;;32.30;25.40;;;17.70;99.90;;;;;;5045355;28;20100;-80
2022/08/16 02:55:38;;;;;;;28.42;22.58;;;17.70;1.00;;;;;;5052126;28;20030;-80
2022/08/16 02:58:04;;;;;;;31.27;24.00;;;17.60;1.00;;;;;;5044429;28;20026;-80
2022/08/16 03:00:30;;;;;;;31.88;25.55;;;17.60;1.00;;;;;;5029533;28;20092;-80
2022/08/16 03:02:57;;;;;;;32.72;26.58;;;17.60;1.00;;;;;;5053417;28;20017;-80
2022/08/16 03:05:23;;;;;;;30.13;24.33;;;17.50;1.00;;;;;;5053714;28;20052;-80
2022/08/16 03:07:49;;;;;;;34.85;26.60;;;17.50;1.00;;;;;;5051044;28;20088;-80
2022/08/16 03:10:15;;;;;;;33.63;26.02;;;17.50;1.00;;;;;;5046885;28;20036;-80
2022/08/16 03:12:45;;;;;;;37.33;26.30;;;17.40;1.00;;;;;;5046980;28;20064;-80
2022/08/16 03:15:13;;;;;;;36.95;26.58;;;17.40;1.00;;;;;;5043685;28;20044;-80
2022/08/16 03:17:39;;;;;;;34.97;25.95;;;17.40;5.80;;;;;;5044828;28;20088;-80
2022/08/16 03:20:07;;;;;;;34.63;26.33;;;17.30;1.00;;;;;;5045254;28;20033;-80
2022/08/16 03:22:32;;;;;;;34.80;27.00;;;17.30;1.00;;;;;;5047421;28;20026;-80
2022/08/16 03:25:00;;;;;;;37.25;28.20;;;17.30;3.50;;;;;;5052426;28;20025;-80
2022/08/16 03:27:26;;;;;;;33.97;27.35;;;17.20;28.00;;;;;;5048750;28;20049;-80
2022/08/16 03:29:52;;;;;;;33.20;25.80;;;17.20;14.30;;;;;;5044977;28;20029;-80
2022/08/16 03:32:18;;;;;;;35.47;25.95;;;17.20;1.00;;;;;;5044518;28;20080;-81
2022/08/16 03:34:45;;;;;;;36.15;26.95;;;17.10;29.50;;;;;;5045217;28;20033;-81
2022/08/16 03:37:11;;;;;;;32.72;25.95;;;17.10;7.50;;;;;;5042664;28;20414;-80
2022/08/16 03:39:38;;;;;;;35.75;26.30;;;17.00;1.00;;;;;;5043299;28;20021;-80
2022/08/16 03:42:04;;;;;;;31.60;26.13;;;16.90;1.00;;;;;;5044106;28;20101;-80
2022/08/16 03:44:31;;;;;;;36.58;26.98;;;16.90;1.00;;;;;;5043573;28;20056;-80
2022/08/16 03:46:57;;;;;;;36.00;26.90;;;16.90;1.00;;;;;;5046135;28;20022;-81
2022/08/16 03:49:22;;;;;;;33.72;26.92;;;16.90;1.00;;;;;;5049310;28;20022;-81
2022/08/16 03:51:48;;;;;;;34.58;26.15;;;17.00;1.00;;;;;;5049458;28;20001;-81
2022/08/16 03:54:14;;;;;;;36.85;27.10;;;16.90;1.00;;;;;;5046685;28;20021;-80
2022/08/16 03:56:40;;;;;;;35.88;26.17;;;16.70;1.00;;;;;;5045163;28;20036;-80
2022/08/16 03:59:06;;;;;;;37.17;27.80;;;16.80;1.00;;;;;;5047334;28;20077;-81
2022/08/16 04:01:31;;;;;;;34.45;25.88;;;16.80;1.00;;;;;;5045493;28;20052;-80
2022/08/16 04:03:57;;;;;;;31.75;26.08;;;16.80;1.00;;;;;;5045995;28;20025;-80
2022/08/16 04:06:23;;;;;;;33.47;26.33;;;16.90;1.00;;;;;;5033733;28;20034;-81
2022/08/16 04:08:49;;;;;;;34.50;27.80;;;16.90;1.00;;;;;;5041005;28;20026;-81
2022/08/16 04:11:15;;;;;;;37.60;27.35;;;16.80;1.00;;;;;;5042089;28;20113;-80
2022/08/16 04:13:41;;;;;;;35.50;26.25;;;17.00;5.90;;;;;;5041868;28;20556;-81
2022/08/16 04:16:08;;;;;;;41.40;27.63;;;16.80;1.00;;;;;;5042226;28;20030;-80
2022/08/16 04:18:37;;;;;;;34.67;26.92;;;16.80;1.00;;;;;;5043005;28;20029;-80
2022/08/16 04:21:02;;;;;;;38.30;28.17;;;17.00;1.00;;;;;;5035598;28;20020;-80
2022/08/16 04:23:28;;;;;;;36.00;26.50;;;17.10;11.10;;;;;;5051357;28;20049;-80
2022/08/16 04:25:54;;;;;;;34.38;26.95;;;17.00;1.00;;;;;;5055747;28;20033;-81
2022/08/16 04:28:19;;;;;;;34.35;26.08;;;17.00;1.00;;;;;;5050810;28;20037;-81
2022/08/16 04:30:45;;;;;;;33.35;26.17;;;17.00;1.00;;;;;;5049208;28;20001;-81
2022/08/16 04:33:10;;;;;;;37.28;26.77;;;17.10;1.00;;;;;;5050468;28;20501;-81
2022/08/16 04:35:36;;;;;;;32.65;25.70;;;17.10;1.00;;;;;;5049078;28;20108;-82
2022/08/16 04:38:02;;;;;;;38.63;27.52;;;17.10;9.00;;;;;;5045956;28;20029;-81
2022/08/16 04:40:28;;;;;;;35.28;25.85;;;17.10;1.00;;;;;;5042254;28;20100;-80
2022/08/16 04:42:54;;;;;;;35.65;27.13;;;17.10;1.00;;;;;;5038253;28;20080;-80
2022/08/16 04:45:20;;;;;;;38.45;26.95;;;17.20;18.70;;;;;;5032209;28;20025;-81
2022/08/16 04:47:47;;;;;;;35.58;26.85;;;17.20;18.30;;;;;;5022402;28;20096;-80
2022/08/16 04:50:17;;;;;;;39.53;27.38;;;17.40;3.90;;;;;;5030490;28;20037;-81
2022/08/16 04:52:47;;;;;;;35.30;25.55;;;17.50;52.30;;;;;;5040981;28;20500;-80
2022/08/16 04:55:17;;;;;;;35.13;26.25;;;17.50;1.20;;;;;;5041008;28;20040;-80
2022/08/16 04:57:43;;;;;;;;;;;17.60;2.70;;;;;;5041589;28;20025;-80
2022/08/16 05:00:15;;;;;;;36.72;26.35;;;17.60;1.00;;;;;;5040173;28;19913;-80
2022/08/16 05:02:41;;;;;;;35.63;26.48;;;17.70;17.00;;;;;;5041903;28;20477;-80
2022/08/16 05:05:09;;;;;;;43.35;29.02;;;17.80;5.60;;;;;;5041916;28;20037;-81
2022/08/16 05:07:34;;;;;;;45.28;30.85;;;18.00;14.90;;;;;;5040717;28;20025;-79
2022/08/16 05:10:01;;;;;;;44.08;30.80;;;18.20;35.00;;;;;;5040413;28;20025;-80
2022/08/16 05:12:26;;;;;;;46.33;31.58;;;18.20;17.00;;;;;;5038431;28;20044;-80
2022/08/16 05:14:52;;;;;;;44.17;31.35;;;18.40;4.40;;;;;;5037227;28;20029;-80
2022/08/16 05:17:17;;;;;;;42.03;29.63;;;18.60;1.00;;;;;;5038102;28;20073;-79
2022/08/16 05:19:43;;;;;;;43.60;30.95;;;18.70;1.00;;;;;;5041277;28;20084;-80
2022/08/16 05:22:08;;;;;;;44.10;31.65;;;18.70;1.00;;;;;;5037784;28;20060;-80
2022/08/16 05:24:34;;;;;;;40.88;30.83;;;18.90;1.00;;;;;;5041415;28;20034;-79
2022/08/16 05:26:59;;;;;;;42.85;30.65;;;19.10;1.00;;;;;;5042966;28;20029;-80
2022/08/16 05:29:25;;;;;;;43.80;31.55;;;19.30;1.00;;;;;;5040409;28;20396;-80
2022/08/16 05:31:51;;;;;;;43.88;31.73;;;19.50;1.00;;;;;;5038467;28;20029;-80
2022/08/16 05:34:20;;;;;;;40.38;28.90;;;20.90;1.00;;;;;;5037986;28;20021;-80
2022/08/16 05:36:48;;;;;;;41.03;30.92;;;22.70;99.90;;;;;;5036762;28;20646;-80
2022/08/16 05:39:13;;;;;;;36.63;29.88;;;23.80;99.90;;;;;;5039158;28;20018;-79
2022/08/16 05:41:39;;;;;;;37.40;26.67;;;24.70;99.90;;;;;;5040096;28;20036;-81
2022/08/16 05:44:04;;;;;;;27.70;20.40;;;25.60;99.90;;;;;;5046838;28;20025;-78
2022/08/16 05:46:30;;;;;;;29.35;23.08;;;26.40;99.90;;;;;;5056020;28;20061;-78
2022/08/16 05:48:56;;;;;;;27.52;20.40;;;27.00;99.90;;;;;;5055730;28;20034;-78
2022/08/16 05:51:21;;;;;;;30.30;23.08;;;27.60;99.90;;;;;;5054443;28;20021;-78
2022/08/16 05:53:47;;;;;;;30.20;20.23;;;28.30;99.90;;;;;;5055155;28;20037;-78
2022/08/16 05:56:12;;;;;;;30.02;24.42;;;29.00;99.90;;;;;;5056090;28;20093;-78
2022/08/16 05:58:38;;;;;;;29.77;22.83;;;29.40;99.90;;;;;;5055231;28;20030;-78
2022/08/16 06:01:04;;;;;;;25.05;20.88;;;29.70;99.90;;;;;;5056611;28;20021;-78
2022/08/16 06:03:29;;;;;;;30.77;22.80;;;30.00;99.90;;;;;;5058729;28;20061;-78
2022/08/16 06:05:55;;;;;;;29.70;22.95;;;30.40;99.90;;;;;;5057629;28;20033;-78
2022/08/16 06:08:21;;;;;;;30.17;24.15;;;30.70;99.90;;;;;;5054477;28;20030;-78
2022/08/16 06:10:46;;;;;;;28.50;22.92;;;29.60;99.90;;;;;;5057476;28;20013;-78
2022/08/16 06:13:12;;;;;;;29.73;24.10;;;29.00;99.90;;;;;;5055036;28;20029;-78
2022/08/16 06:15:38;;;;;;;25.17;20.88;;;27.80;99.90;;;;;;5052354;28;20039;-78
2022/08/16 06:18:04;;;;;;;28.02;22.08;;;26.90;99.90;;;;;;5057436;28;20056;-78
2022/08/16 06:20:30;;;;;;;29.17;23.95;;;26.70;99.90;;;;;;5055434;28;20024;-78
2022/08/16 06:22:56;;;;;;;27.98;22.75;;;26.60;99.90;;;;;;5057509;28;20056;-79
2022/08/16 06:25:24;;;;;;;28.02;23.10;;;26.80;99.90;;;;;;5057006;28;20101;-79
2022/08/16 06:27:51;;;;;;;29.40;25.42;;;27.10;99.90;;;;;;5058174;28;20025;-78
2022/08/16 06:30:16;;;;;;;27.20;22.90;;;27.40;99.90;;;;;;5057684;28;20026;-79
2022/08/16 06:32:42;;;;;;;31.17;24.65;;;27.20;99.90;;;;;;5056241;28;20105;-78
2022/08/16 06:35:08;;;;;;;30.10;24.55;;;27.40;99.90;;;;;;5057479;28;20062;-79
2022/08/16 06:37:34;;;;;;;26.10;23.02;;;28.50;99.90;;;;;;5054236;28;20016;-79
2022/08/16 06:40:00;;;;;;;32.08;24.23;;;30.20;99.90;;;;;;5056904;28;20025;-79
2022/08/16 06:42:25;;;;;;;30.10;24.80;;;32.70;99.90;;;;;;5056167;28;20022;-79
2022/08/16 06:44:51;;;;;;;28.88;21.45;;;31.70;99.90;;;;;;5056509;28;20029;-79
2022/08/16 06:47:17;;;;;;;30.63;23.63;;;32.40;99.90;;;;;;5055391;28;20045;-78
2022/08/16 06:49:43;;;;;;;25.73;22.98;;;31.60;99.90;;;;;;5057948;28;20018;-78
2022/08/16 06:52:08;;;;;;;31.67;24.45;;;29.60;99.90;;;;;;5053490;28;20029;-79
2022/08/16 06:54:34;;;;;;;24.50;21.92;;;28.80;99.90;;;;;;5050449;28;20021;-79
2022/08/16 06:57:00;;;;;;;27.73;21.65;;;28.10;99.90;;;;;;5053490;28;20037;-76
2022/08/16 06:59:26;;;;;;;23.08;19.98;;;27.90;99.90;;;;;;5056094;28;20024;-80
2022/08/16 07:01:53;;;;;;;25.92;22.75;;;27.90;99.90;;;;;;5056323;28;20020;-79
2022/08/16 07:04:18;;;;;;;26.73;21.23;;;27.60;99.90;;;;;;5057044;28;20021;-80
2022/08/16 07:06:44;;;;;;;23.98;21.23;;;28.40;99.90;;;;;;5057618;28;20020;-80
2022/08/16 07:09:11;;;;;;;26.55;22.08;;;29.90;99.90;;;;;;5057399;28;20021;-80
2022/08/16 07:11:37;;;;;;;25.50;20.88;;;32.20;99.90;;;;;;5057632;28;20018;-79
2022/08/16 07:14:03;;;;;;;25.15;22.00;;;32.70;99.90;;;;;;5057489;28;20077;-79
2022/08/16 07:16:28;;;;;;;24.48;20.17;;;32.40;99.90;;;;;;5057290;28;20048;-79
2022/08/16 07:18:54;;;;;;;25.08;20.67;;;31.70;99.90;;;;;;5057306;28;20080;-79
2022/08/16 07:21:21;;;;;;;23.70;20.63;;;30.80;99.90;;;;;;5057081;28;20036;-80
2022/08/16 07:23:46;;;;;;;25.77;22.33;;;29.90;99.90;;;;;;5057445;28;20077;-79
2022/08/16 07:26:21;;;;;;;28.88;21.67;;;29.50;99.90;;;;;;5057187;28;20029;-80
2022/08/16 07:28:47;;;;;;;23.10;18.98;;;30.20;99.90;;;;;;5057434;28;20043;-79
2022/08/16 07:31:13;;;;;;;24.55;21.90;;;29.00;99.90;;;;;;5057189;28;20105;-80
2022/08/16 07:33:39;;;;;;;27.48;22.33;;;28.60;99.90;;;;;;5048979;28;20110;-80
2022/08/16 07:36:06;;;;;;;28.60;23.02;;;28.50;99.90;;;;;;5056669;28;20354;-80
2022/08/16 07:38:32;;;;;;;29.77;23.52;;;29.30;99.90;;;;;;5037728;28;20018;-79
2022/08/16 07:40:58;;;;;;;27.65;22.55;;;31.40;99.90;;;;;;5053247;28;20073;-79
2022/08/16 07:43:24;;;;;;;28.50;23.90;;;33.80;99.90;;;;;;5054522;28;20021;-79
2022/08/16 07:45:50;;;;;;;31.73;24.08;;;35.70;99.90;;;;;;5056456;28;20040;-79
2022/08/16 07:48:16;;;;;;;30.15;23.45;;;34.90;99.90;;;;;;5052583;28;20057;-79
2022/08/16 07:50:43;;;;;;;23.77;21.20;;;33.70;99.90;;;;;;5053590;28;20029;-78
2022/08/16 07:53:08;;;;;;;24.10;21.33;;;32.20;99.90;;;;;;5056071;28;20029;-79
2022/08/16 07:55:35;;;;;;;25.70;22.25;;;31.00;99.90;;;;;;5055775;28;20121;-78
2022/08/16 07:58:01;;;;;;;26.92;21.92;;;29.60;99.90;;;;;;5054342;28;20032;-78
2022/08/16 08:00:26;;;;;;;25.65;22.30;;;31.80;99.90;;;;;;5046513;28;20014;-79
2022/08/16 08:02:52;;;;;;;23.45;20.50;;;34.80;99.90;;;;;;5056435;28;20013;-78
2022/08/16 08:05:18;;;;;;;26.10;21.75;;;37.70;99.90;;;;;;5055964;28;20028;-78
2022/08/16 08:07:43;;;;;;;26.27;22.70;;;38.00;99.90;;;;;;5054699;28;20034;-79
2022/08/16 08:10:09;;;;;;;22.77;19.27;;;38.90;99.90;;;;;;5055127;28;20013;-78
2022/08/16 08:12:35;;;;;;;22.85;20.17;;;39.80;99.90;;;;;;5054252;28;20028;-78
2022/08/16 08:15:01;;;;;;;26.25;20.98;;;41.10;99.90;;;;;;5055281;28;20037;-78
2022/08/16 08:17:30;;;;;;;23.80;21.15;;;41.50;99.90;;;;;;5056103;28;20024;-80
2022/08/16 08:19:56;;;;;;;24.30;21.63;;;41.50;99.90;;;;;;5056425;28;20014;-80
2022/08/16 08:22:21;;;;;;;23.95;21.25;;;41.90;99.90;;;;;;5056052;28;20025;-80
2022/08/16 08:24:47;;;;;;;23.42;20.30;;;42.70;99.90;;;;;;5056386;28;20073;-80
2022/08/16 08:27:13;;;;;;;23.75;21.25;;;41.90;99.90;;;;;;5056525;28;20038;-80
2022/08/16 08:29:40;;;;;;;22.25;20.00;;;41.20;99.90;;;;;;5056615;28;20028;-80
2022/08/16 08:32:06;;;;;;;21.90;19.60;;;42.20;99.90;;;;;;5056267;28;20016;-80
2022/08/16 08:34:32;;;;;;;23.17;20.75;;;41.90;99.90;;;;;;5056375;28;20089;-79
2022/08/16 08:36:58;;;;;;;24.02;19.27;;;41.90;99.90;;;;;;5056279;28;20045;-80
2022/08/16 08:39:24;;;;;;;22.10;19.77;;;41.30;99.90;;;;;;5055532;28;20048;-80
2022/08/16 08:41:51;;;;;;;21.17;18.98;;;41.20;99.20;;;;;;5055555;28;20017;-80
2022/08/16 08:44:18;;;;;;;20.35;18.30;;;43.30;98.30;;;;;;5055567;28;20017;-80
2022/08/16 08:46:43;;;;;;;21.17;18.70;;;44.90;95.70;;;;;;5038948;28;20021;-80
2022/08/16 08:49:09;;;;;;;23.08;19.38;;;45.50;93.30;;;;;;5056412;28;20021;-80
2022/08/16 08:51:37;;;;;;;19.45;17.40;;;45.80;91.20;;;;;;5055898;28;20052;-80
2022/08/16 08:54:04;;;;;;;20.63;17.95;;;46.70;86.60;;;;;;5045509;28;20034;-80
2022/08/16 08:56:32;;;;;;;23.13;17.90;;;46.60;83.80;;;;;;5049569;28;20060;-79
2022/08/16 08:58:58;;;;;;;23.00;18.67;;;44.70;79.50;;;;;;5055809;28;20029;-80
2022/08/16 09:01:30;;;;;;;27.55;20.60;;;44.70;84.40;;;;;;5056265;28;20056;-80
2022/08/16 09:03:55;;;;;;;20.00;18.00;;;44.00;80.00;;;;;;5039002;28;20018;-80
2022/08/16 09:06:21;;;;;;;21.48;19.27;;;42.90;81.40;;;;;;5056269;28;20040;-80
2022/08/16 09:08:46;;;;;;;22.30;18.20;;;43.00;82.80;;;;;;5056183;28;20026;-80
2022/08/16 09:11:12;;;;;;;20.27;17.58;;;44.10;80.70;;;;;;5059878;28;20041;-80
2022/08/16 09:13:37;;;;;;;22.55;18.08;;;44.60;80.40;;;;;;5059894;28;20017;-80
2022/08/16 09:16:03;;;;;;;18.25;16.38;;;45.90;77.30;;;;;;5059363;28;20077;-80
2022/08/16 09:18:29;;;;;;;20.30;18.10;;;46.40;74.00;;;;;;5059271;28;20065;-80
2022/08/16 09:20:55;;;;;;;20.00;17.60;;;47.00;71.80;;;;;;5059638;28;20041;-80
2022/08/16 09:23:21;;;;;;;19.92;17.23;;;47.30;66.50;;;;;;5059132;28;20052;-80
2022/08/16 09:25:47;;;;;;;19.73;17.67;;;46.30;66.70;;;;;;5058957;28;20006;-80
2022/08/16 09:28:14;;;;;;;19.50;17.42;;;46.90;66.60;;;;;;5059631;28;20029;-79
2022/08/16 09:30:41;;;;;;;22.52;19.52;;;47.40;64.50;;;;;;5059517;28;20028;-80
2022/08/16 09:33:07;;;;;;;20.52;18.08;;;46.50;60.70;;;;;;5058945;28;20054;-80
2022/08/16 09:35:36;;;;;;;19.27;16.60;;;45.00;62.10;;;;;;5059143;28;20038;-80
2022/08/16 09:38:02;;;;;;;21.13;18.85;;;43.70;65.00;;;;;;5059263;28;20088;-80
2022/08/16 09:40:27;;;;;;;21.55;17.85;;;44.00;66.40;;;;;;5059360;28;20025;-78
2022/08/16 09:42:54;;;;;;;20.15;18.13;;;45.10;66.20;;;;;;5041985;28;20081;-78
2022/08/16 09:45:20;;;;;;;19.33;16.65;;;45.30;66.70;;;;;;5059453;28;20049;-78
2022/08/16 09:47:46;;;;;;;19.05;16.95;;;45.40;64.80;;;;;;5059335;28;20048;-78
2022/08/16 09:50:13;;;;;;;18.92;16.85;;;46.10;63.90;;;;;;5042021;28;20045;-78
2022/08/16 09:52:39;;;;;;;20.17;16.90;;;46.10;62.00;;;;;;5059186;28;20026;-78
2022/08/16 09:55:07;;;;;;;17.85;15.85;;;43.30;63.40;;;;;;5058926;28;20067;-78
2022/08/16 09:57:32;;;;;;;17.75;15.90;;;43.70;65.10;;;;;;5059221;28;20085;-77
2022/08/16 10:00:00;;;;;;;16.42;14.82;;;44.70;64.40;;;;;;5056222;28;20037;-80
2022/08/16 10:02:26;;;;;;;15.55;14.02;;;44.30;63.90;;;;;;5058052;28;20085;-80
2022/08/16 10:04:52;;;;;;;13.70;11.82;;;45.10;61.50;;;;;;5054540;28;20024;-80
2022/08/16 10:07:18;;;;;;;16.45;13.20;;;46.00;60.80;;;;;;5057826;28;20013;-78
2022/08/16 10:09:44;;;;;;;15.30;13.45;;;45.50;60.00;;;;;;5058181;28;20086;-78
2022/08/16 10:14:54;;;;;;;13.63;12.32;;;45.80;58.20;;;;;;5058154;28;20069;-79
2022/08/16 10:17:20;;;;;;;13.77;12.45;;;46.40;56.20;;;;;;5058475;28;20045;-79
2022/08/16 10:19:46;;;;;;;13.38;11.98;;;45.30;54.80;;;;;;5055701;28;20022;-79
2022/08/16 10:22:12;;;;;;;15.40;11.73;;;45.40;56.10;;;;;;5053491;28;20057;-79
2022/08/16 10:24:39;;;;;;;17.60;12.90;;;46.00;56.10;;;;;;5055902;28;20018;-79
2022/08/16 10:27:05;;;;;;;14.43;10.98;;;45.00;56.20;;;;;;5057940;28;20017;-79
2022/08/16 10:29:31;;;;;;;12.75;11.55;;;45.60;56.30;;;;;;5058009;28;20056;-79
2022/08/16 10:31:56;;;;;;;13.60;12.30;;;45.20;56.10;;;;;;5054215;28;20014;-78
2022/08/16 10:34:22;;;;;;;17.00;12.30;;;44.90;54.90;;;;;;5056725;28;20100;-78
2022/08/16 10:36:48;;;;;;;11.18;9.80;;;45.60;55.00;;;;;;5057160;28;20018;-78
2022/08/16 10:39:13;;;;;;;12.68;11.23;;;44.50;55.70;;;;;;5057208;28;20077;-78
2022/08/16 10:41:39;;;;;;;13.65;11.88;;;44.30;55.90;;;;;;5057105;28;20297;-78
2022/08/16 10:44:05;;;;;;;12.65;11.38;;;44.30;55.20;;;;;;5057031;28;20009;-78
2022/08/16 10:46:31;;;;;;;14.35;10.20;;;43.30;56.30;;;;;;5057057;28;20025;-78
2022/08/16 10:48:57;;;;;;;14.57;11.80;;;43.40;58.50;;;;;;5057341;28;20017;-78
2022/08/16 10:51:23;;;;;;;16.60;12.68;;;43.10;56.50;;;;;;5057437;28;20013;-78
2022/08/16 10:53:49;;;;;;;14.00;12.52;;;42.30;57.70;;;;;;5056696;28;20026;-78
2022/08/16 10:56:16;;;;;;;17.05;12.13;;;41.50;58.80;;;;;;5057190;28;20037;-78
2022/08/16 10:58:41;;;;;;;13.65;11.40;;;41.60;60.10;;;;;;5056990;28;20041;-78
2022/08/16 11:01:09;;;;;;;15.07;10.60;;;41.50;60.40;;;;;;5056872;28;20018;-78
2022/08/16 11:03:35;;;;;;;13.52;10.55;;;40.70;60.70;;;;;;5048704;28;20029;-78
2022/08/16 11:06:03;;;;;;;15.20;12.25;;;39.30;62.50;;;;;;5057121;28;20081;-78
2022/08/16 11:08:29;;;;;;;16.50;11.15;;;37.40;64.00;;;;;;5057582;28;20012;-78
2022/08/16 11:10:55;;;;;;;13.77;10.00;;;36.70;67.70;;;;;;5056979;28;20073;-79
2022/08/16 11:13:27;;;;;;;12.48;10.63;;;35.80;71.60;;;;;;5057041;28;20064;-78
2022/08/16 11:15:56;;;;;;;15.75;10.30;;;35.50;74.50;;;;;;5053847;28;20025;-78
2022/08/16 11:18:22;;;;;;;;;;;35.40;76.60;;;;;;5057299;28;20036;-78
2022/08/16 11:20:47;;;;;;;15.68;11.48;;;35.00;78.90;;;;;;5056673;28;19897;-78
2022/08/16 11:23:13;;;;;;;11.95;10.60;;;34.50;81.10;;;;;;5056774;28;20025;-78
2022/08/16 11:25:39;;;;;;;13.13;10.20;;;35.00;83.90;;;;;;5056653;28;20073;-78
2022/08/16 11:28:06;;;;;;;13.60;10.15;;;35.10;84.60;;;;;;5057124;28;20089;-78
2022/08/16 11:30:33;;;;;;;15.80;10.10;;;34.70;85.80;;;;;;5053926;28;20048;-78
2022/08/16 11:33:02;;;;;;;12.10;10.15;;;34.70;87.70;;;;;;5053885;28;20059;-78
2022/08/16 11:35:29;;;;;;;13.00;9.60;;;34.40;87.80;;;;;;5056287;28;20040;-78
2022/08/16 11:37:59;;;;;;;9.40;8.48;;;34.40;88.40;;;;;;5056872;28;20018;-78
2022/08/16 11:40:27;;;;;;;10.57;8.88;;;34.30;89.20;;;;;;5055902;28;20025;-78
2022/08/16 11:42:53;;;;;;;12.45;8.82;;;34.20;89.50;;;;;;5056617;28;20028;-78
2022/08/16 11:45:19;;;;;;;12.48;10.35;;;34.20;90.00;;;;;;5056685;28;20021;-78
2022/08/16 11:47:45;;;;;;;11.85;10.63;;;33.90;89.70;;;;;;5056870;28;20034;-78
2022/08/16 11:50:11;;;;;;;12.05;8.93;;;33.50;91.30;;;;;;5056730;28;20020;-78
2022/08/16 11:52:37;;;;;;;11.25;9.45;;;33.80;91.10;;;;;;5056727;28;20024;-78
2022/08/16 11:55:05;;;;;;;9.07;8.27;;;33.40;90.50;;;;;;5056869;28;20093;-79
2022/08/16 11:57:31;;;;;;;11.60;8.77;;;33.30;90.10;;;;;;5056458;28;20013;-78
2022/08/16 11:59:57;;;;;;;9.20;8.35;;;33.40;90.90;;;;;;5056631;28;20052;-79
2022/08/16 12:02:23;;;;;;;8.93;8.07;;;33.60;90.30;;;;;;5056437;28;20029;-78
2022/08/16 12:04:49;;;;;;;8.88;8.07;;;33.60;90.70;;;;;;5056683;28;20293;-78
2022/08/16 12:07:14;;;;;;;9.70;8.50;;;33.60;90.30;;;;;;5057097;28;20275;-78
2022/08/16 12:09:40;;;;;;;8.95;8.05;;;33.10;89.10;;;;;;5056757;28;20017;-79
2022/08/16 12:12:06;;;;;;;7.68;6.93;;;33.10;89.90;;;;;;5056645;28;20064;-78
2022/08/16 12:14:33;;;;;;;7.45;6.78;;;33.30;88.10;;;;;;5053620;28;20048;-78
2022/08/16 12:17:01;;;;;;;8.20;7.40;;;33.30;90.00;;;;;;5054405;28;20024;-78
2022/08/16 12:19:27;;;;;;;8.88;6.95;;;33.00;86.80;;;;;;5051085;28;20025;-78
2022/08/16 12:21:53;;;;;;;7.68;6.97;;;33.40;87.10;;;;;;5056490;28;20021;-78
2022/08/16 12:24:19;;;;;;;7.78;7.15;;;33.70;87.00;;;;;;5056710;28;20052;-78
2022/08/16 12:26:44;;;;;;;8.90;8.10;;;33.30;87.40;;;;;;5056662;28;20054;-79
2022/08/16 12:29:10;;;;;;;9.20;8.40;;;32.90;86.70;;;;;;5056585;28;20016;-78
2022/08/16 12:31:35;;;;;;;11.18;8.98;;;32.60;87.30;;;;;;5055851;28;20042;-79